createdAt,value
2018-10-19T00:00:36.274Z,11.40
2018-10-19T00:03:40.503Z,11.50
2018-10-19T00:06:44.714Z,11.50
2018-10-19T00:09:49.418Z,11.50
2018-10-19T00:12:53.634Z,11.50
2018-10-19T00:15:57.995Z,11.30
2018-10-19T00:19:02.225Z,11.30
2018-10-19T00:22:06.923Z,11.30
2018-10-19T00:25:11.149Z,11.30
2018-10-19T00:28:15.437Z,11.30
2018-10-19T00:31:19.658Z,11.30
2018-10-19T00:34:23.897Z,11.30
2018-10-19T00:37:28.174Z,11.30
2018-10-19T00:40:32.602Z,11.20
2018-10-19T00:43:36.798Z,11.20
2018-10-19T00:46:41.066Z,11.20
2018-10-19T00:49:45.282Z,11.10
2018-10-19T00:52:49.505Z,11.10
2018-10-19T00:55:53.739Z,11.20
2018-10-19T00:58:57.993Z,11.30
2018-10-19T01:02:02.270Z,11.10
2018-10-19T01:05:07.069Z,11.10
2018-10-19T01:08:11.411Z,11.10
2018-10-19T01:11:16.050Z,11.20
2018-10-19T01:14:20.206Z,11.10
2018-10-19T01:17:24.680Z,11.10
2018-10-19T01:20:28.976Z,11.10
2018-10-19T01:23:33.581Z,11.10
2018-10-19T01:26:37.894Z,11.10
2018-10-19T01:29:42.116Z,11.10
2018-10-19T01:32:46.762Z,11.00
2018-10-19T01:35:51.016Z,10.90
2018-10-19T01:38:55.267Z,10.80
2018-10-19T01:41:59.381Z,10.70
2018-10-19T01:45:03.600Z,10.70
2018-10-19T01:48:07.733Z,10.70
2018-10-19T01:51:12.007Z,10.70
2018-10-19T01:54:16.129Z,10.80
2018-10-19T01:57:23.583Z,10.80
2018-10-19T02:00:27.805Z,10.70
2018-10-19T02:03:32.050Z,10.70
2018-10-19T02:06:36.334Z,10.70
2018-10-19T02:09:40.691Z,10.70
2018-10-19T02:12:44.878Z,10.70
2018-10-19T02:15:49.156Z,10.60
2018-10-19T02:18:53.631Z,10.60
2018-10-19T02:21:57.850Z,10.50
2018-10-19T02:25:02.076Z,10.50
2018-10-19T02:28:06.360Z,10.40
2018-10-19T02:31:10.851Z,10.40
2018-10-19T02:34:15.102Z,10.30
2018-10-19T02:37:19.301Z,10.20
2018-10-19T02:40:23.946Z,10.10
2018-10-19T02:43:28.630Z,10.10
2018-10-19T02:46:32.826Z,10.10
2018-10-19T02:49:37.047Z,10.10
2018-10-19T02:52:41.233Z,10.10
2018-10-19T02:55:45.470Z,10.00
2018-10-19T02:58:49.639Z,10.00
2018-10-19T03:01:53.838Z,10.00
2018-10-19T03:04:58.182Z,10.00
2018-10-19T03:08:02.683Z,10.00
2018-10-19T03:11:07.300Z,10.00
2018-10-19T03:14:11.455Z,10.00
2018-10-19T03:17:15.817Z,9.90
2018-10-19T03:20:20.239Z,9.80
2018-10-19T03:23:24.597Z,9.80
2018-10-19T03:26:28.977Z,9.80
2018-10-19T03:29:33.152Z,9.80
2018-10-19T03:32:37.326Z,9.80
2018-10-19T03:35:41.553Z,9.80
2018-10-19T03:38:45.739Z,9.70
2018-10-19T03:41:49.931Z,9.60
2018-10-19T03:44:54.183Z,9.60
2018-10-19T03:47:59.054Z,9.50
2018-10-19T03:51:03.288Z,9.50
2018-10-19T03:54:07.540Z,9.60
2018-10-19T03:57:11.789Z,9.50
2018-10-19T04:00:15.941Z,9.50
2018-10-19T04:03:20.155Z,9.50
2018-10-19T04:06:24.357Z,9.50
2018-10-19T04:09:28.795Z,9.50
2018-10-19T04:12:32.979Z,9.50
2018-10-19T04:15:37.184Z,9.50
2018-10-19T04:18:41.340Z,9.40
2018-10-19T04:21:45.519Z,9.40
2018-10-19T04:24:49.707Z,9.40
2018-10-19T04:27:53.958Z,9.40
2018-10-19T04:30:58.425Z,9.40
2018-10-19T04:34:02.978Z,9.40
2018-10-19T04:37:07.652Z,9.40
2018-10-19T04:40:18.503Z,9.40
2018-10-19T04:43:23.016Z,9.40
2018-10-19T04:46:27.589Z,9.40
2018-10-19T04:49:32.121Z,9.40
2018-10-19T04:52:36.427Z,9.40
2018-10-19T04:55:40.597Z,9.40
2018-10-19T04:58:44.789Z,9.40
2018-10-19T05:01:48.998Z,9.40
2018-10-19T05:04:53.402Z,9.40
2018-10-19T05:07:57.609Z,9.40
2018-10-19T05:11:01.749Z,9.40
2018-10-19T05:14:06.405Z,9.40
2018-10-19T05:17:12.371Z,9.40
2018-10-19T05:20:18.173Z,9.50
2018-10-19T05:23:22.259Z,9.50
2018-10-19T05:26:26.749Z,9.60
2018-10-19T05:29:30.901Z,9.70
2018-10-19T05:32:35.111Z,9.70
2018-10-19T05:35:39.295Z,9.70
2018-10-19T05:38:43.451Z,9.70
2018-10-19T05:41:47.586Z,9.80
2018-10-19T05:44:51.728Z,9.90
2018-10-19T05:47:55.908Z,10.00
2018-10-19T05:51:00.075Z,10.10
2018-10-19T05:54:04.538Z,10.10
2018-10-19T05:57:08.710Z,10.10
2018-10-19T06:00:13.597Z,10.10
2018-10-19T06:03:17.859Z,10.10
2018-10-19T06:06:22.032Z,10.10
2018-10-19T06:09:26.255Z,10.00
2018-10-19T06:12:30.608Z,10.00
2018-10-19T06:15:34.762Z,10.00
2018-10-19T06:18:38.906Z,9.80
2018-10-19T06:21:43.334Z,9.90
2018-10-19T06:24:47.519Z,9.90
2018-10-19T06:27:51.677Z,9.90
2018-10-19T06:30:55.857Z,10.00
2018-10-19T06:34:00.256Z,10.00
2018-10-19T06:37:04.518Z,10.10
2018-10-19T06:40:08.678Z,10.10
2018-10-19T06:43:13.668Z,10.10
2018-10-19T06:46:17.817Z,10.00
2018-10-19T06:49:22.018Z,10.00
2018-10-19T06:52:26.155Z,9.90
2018-10-19T06:55:30.304Z,9.90
2018-10-19T06:58:34.443Z,10.10
2018-10-19T07:01:38.641Z,10.30
2018-10-19T07:04:42.844Z,10.40
2018-10-19T07:07:47.017Z,10.50
2018-10-19T07:10:51.117Z,10.60
2018-10-19T07:13:55.272Z,10.70
2018-10-19T07:16:59.444Z,10.70
2018-10-19T07:20:03.703Z,10.80
2018-10-19T07:23:07.841Z,10.90
2018-10-19T07:26:12.011Z,11.00
2018-10-19T07:29:16.220Z,11.10
2018-10-19T07:32:20.290Z,11.10
2018-10-19T07:35:24.462Z,11.10
2018-10-19T07:38:28.624Z,11.10
2018-10-19T07:41:32.772Z,11.10
2018-10-19T07:44:36.906Z,11.10
2018-10-19T07:47:41.135Z,11.30
2018-10-19T07:50:45.243Z,11.40
2018-10-19T07:53:49.414Z,11.50
2018-10-19T07:56:53.578Z,11.50
2018-10-19T07:59:57.732Z,11.70
2018-10-19T08:03:01.887Z,11.80
2018-10-19T08:06:06.018Z,11.90
2018-10-19T08:09:11.254Z,12.00
2018-10-19T08:12:15.459Z,12.10
2018-10-19T08:15:19.595Z,12.20
2018-10-19T08:18:23.884Z,12.30
2018-10-19T08:21:28.367Z,12.40
2018-10-19T08:24:36.021Z,12.50
2018-10-19T08:27:41.589Z,12.70
2018-10-19T08:30:45.738Z,12.80
2018-10-19T08:33:49.886Z,12.90
2018-10-19T08:36:54.072Z,13.00
2018-10-19T08:39:58.215Z,13.00
2018-10-19T08:43:02.470Z,13.00
2018-10-19T08:46:12.054Z,13.00
2018-10-19T08:49:16.208Z,13.00
2018-10-19T08:52:20.336Z,13.20
2018-10-19T08:55:24.619Z,13.40
2018-10-19T08:58:28.767Z,13.40
2018-10-19T09:01:32.931Z,13.50
2018-10-19T09:04:37.163Z,13.50
2018-10-19T09:07:41.314Z,13.50
2018-10-19T09:10:45.508Z,13.40
2018-10-19T09:13:49.593Z,13.50
2018-10-19T09:16:53.855Z,13.70
2018-10-19T09:19:57.963Z,14.00
2018-10-19T09:23:02.182Z,14.30
2018-10-19T09:26:06.299Z,14.70
2018-10-19T09:29:10.481Z,15.10
2018-10-19T09:32:14.649Z,15.50
2018-10-19T09:35:18.944Z,15.70
2018-10-19T09:38:22.932Z,15.80
2018-10-19T09:41:27.246Z,16.10
2018-10-19T09:44:31.328Z,16.40
2018-10-19T09:47:35.517Z,16.80
2018-10-19T09:50:39.622Z,17.10
2018-10-19T09:53:43.761Z,17.20
2018-10-19T09:56:47.901Z,17.20
2018-10-19T09:59:52.074Z,17.30
2018-10-19T10:02:56.227Z,17.50
2018-10-19T10:06:00.363Z,17.70
2018-10-19T10:09:07.727Z,17.90
2018-10-19T10:12:11.895Z,18.20
2018-10-19T10:15:16.182Z,18.30
2018-10-19T10:18:20.187Z,18.50
2018-10-19T10:21:24.327Z,18.80
2018-10-19T10:24:28.479Z,18.80
2018-10-19T10:27:32.709Z,19.00
2018-10-19T10:30:36.847Z,19.10
2018-10-19T10:33:41.103Z,19.10
2018-10-19T10:36:45.234Z,19.10
2018-10-19T10:39:49.399Z,19.30
2018-10-19T10:42:53.599Z,19.20
2018-10-19T10:45:57.761Z,19.10
2018-10-19T10:49:01.948Z,19.20
2018-10-19T10:52:06.721Z,19.20
2018-10-19T10:55:10.929Z,19.10
2018-10-19T10:58:15.088Z,19.20
2018-10-19T11:01:19.215Z,19.30
2018-10-19T11:04:23.344Z,19.30
2018-10-19T11:07:27.677Z,19.40
2018-10-19T11:10:31.663Z,19.50
2018-10-19T11:13:35.820Z,19.20
2018-10-19T11:16:39.956Z,18.90
2018-10-19T11:19:44.100Z,18.90
2018-10-19T11:22:48.255Z,19.00
2018-10-19T11:25:52.407Z,18.80
2018-10-19T11:28:56.554Z,18.50
2018-10-19T11:32:00.703Z,18.60
2018-10-19T11:35:05.177Z,18.90
2018-10-19T11:38:09.360Z,19.00
2018-10-19T11:41:13.534Z,19.10
2018-10-19T11:44:17.687Z,19.30
2018-10-19T11:47:21.827Z,19.30
2018-10-19T11:50:25.974Z,19.40
2018-10-19T11:53:30.214Z,19.50
2018-10-19T11:56:34.363Z,19.60
2018-10-19T11:59:38.511Z,19.70
2018-10-19T12:02:42.668Z,19.70
2018-10-19T12:05:46.803Z,19.70
2018-10-19T12:08:50.965Z,19.80
2018-10-19T12:11:55.119Z,20.20
2018-10-19T12:14:59.327Z,20.40
2018-10-19T12:18:03.463Z,20.50
2018-10-19T12:21:07.959Z,20.70
2018-10-19T12:24:12.140Z,20.80
2018-10-19T12:27:16.332Z,20.70
2018-10-19T12:30:20.427Z,21.00
2018-10-19T12:33:24.572Z,21.20
2018-10-19T12:36:28.867Z,21.10
2018-10-19T12:39:33.014Z,21.00
2018-10-19T12:42:37.581Z,21.10
2018-10-19T12:46:57.986Z,21.20
2018-10-19T12:50:02.161Z,21.20
2018-10-19T12:53:06.387Z,21.50
2018-10-19T12:56:10.650Z,21.60
2018-10-19T12:59:14.894Z,21.50
2018-10-19T13:02:19.051Z,21.60
2018-10-19T13:05:23.206Z,21.60
2018-10-19T13:08:27.447Z,22.20
2018-10-19T13:11:31.582Z,22.80
2018-10-19T13:14:35.785Z,22.70
2018-10-19T13:17:39.942Z,23.00
2018-10-19T13:20:44.112Z,23.40
2018-10-19T13:23:48.333Z,23.50
2018-10-19T13:26:52.522Z,23.40
2018-10-19T13:29:56.708Z,22.80
2018-10-19T13:33:01.351Z,22.30
2018-10-19T13:36:05.852Z,21.90
2018-10-19T13:39:12.012Z,21.70
2018-10-19T13:42:16.098Z,21.70
2018-10-19T13:45:20.279Z,21.70
2018-10-19T13:48:24.699Z,21.70
2018-10-19T13:51:28.862Z,21.70
2018-10-19T13:54:33.018Z,21.60
2018-10-19T13:57:37.171Z,21.50
2018-10-19T14:00:41.415Z,21.30
2018-10-19T14:03:45.543Z,21.00
2018-10-19T14:06:49.705Z,20.90
2018-10-19T14:09:53.953Z,20.80
2018-10-19T14:12:58.142Z,20.70
2018-10-19T14:16:02.293Z,20.80
2018-10-19T14:19:06.439Z,20.80
2018-10-19T14:22:10.634Z,20.90
2018-10-19T14:25:15.021Z,20.80
2018-10-19T14:28:19.267Z,20.80
2018-10-19T14:31:23.508Z,20.70
2018-10-19T14:34:27.658Z,20.60
2018-10-19T14:37:32.007Z,20.50
2018-10-19T14:40:36.164Z,20.40
2018-10-19T14:43:40.302Z,20.30
2018-10-19T14:46:44.722Z,20.20
2018-10-19T14:49:49.001Z,20.00
2018-10-19T14:52:53.170Z,19.70
2018-10-19T14:55:57.342Z,19.50
2018-10-19T14:59:01.567Z,19.50
2018-10-19T15:02:05.792Z,19.50
2018-10-19T15:05:11.914Z,19.40
2018-10-19T15:08:15.997Z,19.30
2018-10-19T15:11:20.337Z,19.20
2018-10-19T15:14:24.332Z,19.10
2018-10-19T15:17:28.550Z,19.00
2018-10-19T15:20:32.707Z,18.90
2018-10-19T15:23:36.858Z,18.80
2018-10-19T15:26:41.324Z,18.80
2018-10-19T15:29:45.622Z,18.80
2018-10-19T15:32:49.651Z,18.70
2018-10-19T15:35:53.819Z,18.60
2018-10-19T15:38:58.092Z,18.50
2018-10-19T15:42:02.255Z,18.40
2018-10-19T15:45:09.956Z,18.30
2018-10-19T15:48:14.113Z,18.10
2018-10-19T15:51:18.247Z,18.00
2018-10-19T15:54:22.527Z,17.80
2018-10-19T15:57:26.739Z,17.70
2018-10-19T16:00:30.954Z,17.50
2018-10-19T16:03:35.040Z,17.30
2018-10-19T16:06:39.287Z,17.20
2018-10-19T16:09:43.494Z,17.00
2018-10-19T16:12:47.638Z,16.90
2018-10-19T16:15:51.811Z,16.70
2018-10-19T16:18:56.068Z,16.50
2018-10-19T16:22:00.224Z,16.50
2018-10-19T16:25:05.018Z,16.30
2018-10-19T16:28:09.175Z,16.20
2018-10-19T16:31:13.339Z,16.10
2018-10-19T16:34:17.573Z,15.90
2018-10-19T16:37:21.728Z,15.90
2018-10-19T16:40:25.897Z,15.70
2018-10-19T16:43:30.055Z,15.60
2018-10-19T16:46:34.214Z,15.50
2018-10-19T16:49:38.365Z,15.40
2018-10-19T16:52:42.743Z,15.30
2018-10-19T16:55:46.750Z,15.20
2018-10-19T16:58:50.920Z,15.00
2018-10-19T17:01:55.094Z,14.90
2018-10-19T17:04:59.262Z,14.80
2018-10-19T17:08:03.468Z,14.70
2018-10-19T17:11:07.652Z,14.60
2018-10-19T17:14:12.104Z,14.60
2018-10-19T17:17:16.267Z,14.60
2018-10-19T17:20:20.451Z,14.50
2018-10-19T17:23:24.749Z,14.40
2018-10-19T17:26:28.971Z,14.40
2018-10-19T17:29:33.315Z,14.30
2018-10-19T17:32:38.400Z,14.30
2018-10-19T17:35:42.620Z,14.20
2018-10-19T17:38:46.771Z,14.20
2018-10-19T17:41:50.997Z,14.20
2018-10-19T17:44:55.233Z,14.10
2018-10-19T17:47:59.445Z,14.00
2018-10-19T17:51:03.960Z,14.00
2018-10-19T17:54:08.166Z,14.00
2018-10-19T17:57:12.235Z,13.90
2018-10-19T18:00:16.374Z,13.90
2018-10-19T18:03:20.531Z,13.80
2018-10-19T18:06:24.729Z,13.80
2018-10-19T18:09:28.943Z,13.80
2018-10-19T18:12:33.049Z,13.80
2018-10-19T18:15:37.232Z,13.70
2018-10-19T18:18:41.310Z,13.70
2018-10-19T18:21:45.479Z,13.60
2018-10-19T18:24:49.650Z,13.50
2018-10-19T18:27:53.830Z,13.40
2018-10-19T18:30:57.993Z,13.40
2018-10-19T18:34:02.126Z,13.30
2018-10-19T18:37:07.816Z,13.30
2018-10-19T18:40:12.811Z,13.20
2018-10-19T18:43:16.975Z,13.20
2018-10-19T18:46:21.215Z,13.20
2018-10-19T18:49:25.436Z,13.10
2018-10-19T18:52:29.666Z,13.10
2018-10-19T18:55:33.876Z,13.00
2018-10-19T18:58:38.103Z,12.90
2018-10-19T19:01:42.252Z,12.80
2018-10-19T19:04:46.460Z,12.80
2018-10-19T19:07:50.637Z,12.70
2018-10-19T19:10:54.806Z,12.70
2018-10-19T19:13:59.043Z,12.70
2018-10-19T19:17:03.177Z,12.70
2018-10-19T19:20:13.712Z,12.60
2018-10-19T19:23:17.856Z,12.60
2018-10-19T19:26:23.410Z,12.60
2018-10-19T19:29:27.566Z,12.60
2018-10-19T19:32:31.803Z,12.60
2018-10-19T19:35:36.745Z,12.50
2018-10-19T19:38:40.962Z,12.50
2018-10-19T19:41:50.531Z,12.40
2018-10-19T19:44:55.620Z,12.30
2018-10-19T19:48:05.164Z,12.30
2018-10-19T19:51:09.418Z,12.30
2018-10-19T19:54:13.605Z,12.20
2018-10-19T19:57:17.730Z,12.20
2018-10-19T20:00:21.895Z,12.10
2018-10-19T20:03:26.036Z,12.10
2018-10-19T20:06:30.180Z,12.00
2018-10-19T20:09:34.330Z,12.00
2018-10-19T20:12:38.923Z,12.00
2018-10-19T20:15:43.139Z,12.00
2018-10-19T20:18:47.295Z,12.00
2018-10-19T20:21:51.572Z,12.00
2018-10-19T20:24:55.774Z,11.90
2018-10-19T20:27:59.992Z,11.90
2018-10-19T20:31:04.146Z,11.80
2018-10-19T20:34:08.320Z,11.80
2018-10-19T20:37:12.533Z,11.70
2018-10-19T20:40:16.797Z,11.70
2018-10-19T20:43:20.909Z,11.70
2018-10-19T20:46:25.124Z,11.70
2018-10-19T20:49:29.295Z,11.70
2018-10-19T20:52:33.454Z,11.70
2018-10-19T20:55:37.614Z,11.70
2018-10-19T20:58:41.764Z,11.70
2018-10-19T21:01:46.023Z,11.70
2018-10-19T21:04:50.256Z,11.60
2018-10-19T21:07:54.390Z,11.60
2018-10-19T21:10:58.564Z,11.50
2018-10-19T21:14:02.710Z,11.40
2018-10-19T21:17:06.950Z,11.50
2018-10-19T21:20:12.172Z,11.40
2018-10-19T21:23:16.270Z,11.40
2018-10-19T21:26:20.569Z,11.40
2018-10-19T21:29:24.784Z,11.30
2018-10-19T21:32:28.936Z,11.30
2018-10-19T21:35:33.090Z,11.20
2018-10-19T21:38:37.228Z,11.20
2018-10-19T21:41:41.385Z,11.20
2018-10-19T21:44:45.507Z,11.30
2018-10-19T21:47:49.663Z,11.20
2018-10-19T21:50:54.957Z,11.20
2018-10-19T21:53:59.693Z,11.20
2018-10-19T21:57:03.860Z,11.10
2018-10-19T22:00:09.600Z,11.10
2018-10-19T22:03:13.776Z,11.10
2018-10-19T22:06:18.250Z,11.00
2018-10-19T22:09:22.403Z,11.00
2018-10-19T22:12:26.590Z,10.90
2018-10-19T22:15:30.806Z,10.90
2018-10-19T22:18:34.990Z,10.80
2018-10-19T22:21:39.744Z,10.90
2018-10-19T22:24:43.927Z,10.90
2018-10-19T22:27:48.081Z,10.90
2018-10-19T22:30:52.230Z,10.90
2018-10-19T22:33:56.416Z,10.80
2018-10-19T22:37:00.652Z,10.80
2018-10-19T22:40:05.355Z,10.70
2018-10-19T22:43:09.542Z,10.70
2018-10-19T22:46:13.694Z,10.60
2018-10-19T22:49:17.955Z,10.50
2018-10-19T22:52:22.114Z,10.50
2018-10-19T22:55:26.271Z,10.50
2018-10-19T22:58:30.426Z,10.40
2018-10-19T23:01:34.599Z,10.40
2018-10-19T23:04:38.849Z,10.30
2018-10-19T23:07:43.046Z,10.30
2018-10-19T23:10:47.339Z,10.30
2018-10-19T23:13:51.618Z,10.30
2018-10-19T23:16:55.805Z,10.20
2018-10-19T23:19:59.938Z,10.20
2018-10-19T23:23:04.151Z,10.10
2018-10-19T23:26:08.286Z,10.10
2018-10-19T23:29:12.577Z,10.10
2018-10-19T23:32:16.663Z,10.10
2018-10-19T23:35:20.877Z,10.10
2018-10-19T23:38:25.093Z,10.00
2018-10-19T23:41:29.568Z,10.00
2018-10-19T23:44:33.793Z,10.00
2018-10-19T23:47:38.054Z,10.00
2018-10-19T23:50:42.242Z,10.00
2018-10-19T23:53:46.391Z,10.00
2018-10-19T23:56:50.629Z,10.00
2018-10-19T23:59:54.778Z,10.10
